sensor_id;sensor_type;location;lat;lon;timestamp;P1;durP1;ratioP1;P2;durP2;ratioP2
16401;SDS011;8310;44.626;11.176;2023-04-15T00:01:21;4.25;;;2.70;;
16401;SDS011;8310;44.626;11.176;2023-04-15T00:03:51;4.68;;;2.80;;
16401;SDS011;8310;44.626;11.176;2023-04-15T00:06:19;5.00;;;2.58;;
16401;SDS011;8310;44.626;11.176;2023-04-15T00:08:48;3.60;;;2.65;;
16401;SDS011;8310;44.626;11.176;2023-04-15T00:11:16;4.22;;;3.05;;
16401;SDS011;8310;44.626;11.176;2023-04-15T00:13:47;3.63;;;3.00;;
16401;SDS011;8310;44.626;11.176;2023-04-15T00:16:14;3.85;;;2.80;;
16401;SDS011;8310;44.626;11.176;2023-04-15T00:18:41;3.28;;;2.53;;
16401;SDS011;8310;44.626;11.176;2023-04-15T00:21:10;4.57;;;2.85;;
16401;SDS011;8310;44.626;11.176;2023-04-15T00:23:37;3.38;;;2.47;;
16401;SDS011;8310;44.626;11.176;2023-04-15T00:26:05;3.13;;;2.83;;
16401;SDS011;8310;44.626;11.176;2023-04-15T00:28:32;5.47;;;2.40;;
16401;SDS011;8310;44.626;11.176;2023-04-15T00:31:00;4.32;;;2.85;;
16401;SDS011;8310;44.626;11.176;2023-04-15T00:33:27;4.72;;;2.88;;
16401;SDS011;8310;44.626;11.176;2023-04-15T00:35:55;3.30;;;2.70;;
16401;SDS011;8310;44.626;11.176;2023-04-15T00:38:24;3.17;;;2.60;;
16401;SDS011;8310;44.626;11.176;2023-04-15T00:40:51;5.32;;;2.72;;
16401;SDS011;8310;44.626;11.176;2023-04-15T00:43:19;3.45;;;2.47;;
16401;SDS011;8310;44.626;11.176;2023-04-15T00:45:47;3.13;;;2.58;;
16401;SDS011;8310;44.626;11.176;2023-04-15T00:48:15;3.33;;;2.65;;
16401;SDS011;8310;44.626;11.176;2023-04-15T00:50:43;3.03;;;2.80;;
16401;SDS011;8310;44.626;11.176;2023-04-15T00:53:10;3.65;;;2.80;;
16401;SDS011;8310;44.626;11.176;2023-04-15T00:55:39;4.25;;;2.25;;
16401;SDS011;8310;44.626;11.176;2023-04-15T00:58:06;3.88;;;2.45;;
16401;SDS011;8310;44.626;11.176;2023-04-15T01:00:34;2.88;;;2.47;;
16401;SDS011;8310;44.626;11.176;2023-04-15T01:03:02;3.05;;;2.70;;
16401;SDS011;8310;44.626;11.176;2023-04-15T01:05:29;4.20;;;2.47;;
16401;SDS011;8310;44.626;11.176;2023-04-15T01:07:57;4.78;;;2.78;;
16401;SDS011;8310;44.626;11.176;2023-04-15T01:10:25;3.92;;;2.42;;
16401;SDS011;8310;44.626;11.176;2023-04-15T01:12:54;4.93;;;2.78;;
16401;SDS011;8310;44.626;11.176;2023-04-15T01:15:22;4.07;;;2.40;;
16401;SDS011;8310;44.626;11.176;2023-04-15T01:17:49;2.15;;;2.05;;
16401;SDS011;8310;44.626;11.176;2023-04-15T01:20:17;3.25;;;2.50;;
16401;SDS011;8310;44.626;11.176;2023-04-15T01:22:45;4.35;;;3.38;;
16401;SDS011;8310;44.626;11.176;2023-04-15T01:25:15;2.95;;;2.72;;
16401;SDS011;8310;44.626;11.176;2023-04-15T01:27:47;4.35;;;2.33;;
16401;SDS011;8310;44.626;11.176;2023-04-15T01:30:14;4.13;;;2.60;;
16401;SDS011;8310;44.626;11.176;2023-04-15T01:32:42;3.45;;;2.60;;
16401;SDS011;8310;44.626;11.176;2023-04-15T01:35:09;2.80;;;2.58;;
16401;SDS011;8310;44.626;11.176;2023-04-15T01:37:36;4.03;;;2.10;;
16401;SDS011;8310;44.626;11.176;2023-04-15T01:40:04;2.90;;;2.50;;
16401;SDS011;8310;44.626;11.176;2023-04-15T01:42:34;5.00;;;2.38;;
16401;SDS011;8310;44.626;11.176;2023-04-15T01:45:03;5.05;;;3.08;;
16401;SDS011;8310;44.626;11.176;2023-04-15T01:47:31;3.92;;;2.50;;
16401;SDS011;8310;44.626;11.176;2023-04-15T01:49:59;2.60;;;2.40;;
16401;SDS011;8310;44.626;11.176;2023-04-15T01:52:27;4.65;;;2.40;;
16401;SDS011;8310;44.626;11.176;2023-04-15T01:54:54;3.35;;;2.60;;
16401;SDS011;8310;44.626;11.176;2023-04-15T01:57:22;3.78;;;2.40;;
16401;SDS011;8310;44.626;11.176;2023-04-15T01:59:49;2.30;;;2.10;;
16401;SDS011;8310;44.626;11.176;2023-04-15T02:02:18;4.75;;;2.55;;
16401;SDS011;8310;44.626;11.176;2023-04-15T02:04:45;2.95;;;2.30;;
16401;SDS011;8310;44.626;11.176;2023-04-15T02:07:13;2.42;;;2.20;;
16401;SDS011;8310;44.626;11.176;2023-04-15T02:09:40;2.78;;;2.58;;
16401;SDS011;8310;44.626;11.176;2023-04-15T02:12:08;4.78;;;2.55;;
16401;SDS011;8310;44.626;11.176;2023-04-15T02:14:35;3.15;;;2.33;;
16401;SDS011;8310;44.626;11.176;2023-04-15T02:17:03;2.97;;;2.40;;
16401;SDS011;8310;44.626;11.176;2023-04-15T02:19:34;2.50;;;2.30;;
16401;SDS011;8310;44.626;11.176;2023-04-15T02:22:01;5.07;;;2.65;;
16401;SDS011;8310;44.626;11.176;2023-04-15T02:24:29;3.25;;;2.40;;
16401;SDS011;8310;44.626;11.176;2023-04-15T02:26:56;3.80;;;2.53;;
16401;SDS011;8310;44.626;11.176;2023-04-15T02:29:24;3.10;;;2.53;;
16401;SDS011;8310;44.626;11.176;2023-04-15T02:31:51;3.90;;;2.45;;
16401;SDS011;8310;44.626;11.176;2023-04-15T02:34:19;3.33;;;2.33;;
16401;SDS011;8310;44.626;11.176;2023-04-15T02:36:47;2.42;;;2.22;;
16401;SDS011;8310;44.626;11.176;2023-04-15T02:39:19;2.55;;;2.30;;
16401;SDS011;8310;44.626;11.176;2023-04-15T02:41:46;2.80;;;2.55;;
16401;SDS011;8310;44.626;11.176;2023-04-15T02:44:16;4.95;;;2.55;;
16401;SDS011;8310;44.626;11.176;2023-04-15T02:46:44;5.47;;;2.78;;
16401;SDS011;8310;44.626;11.176;2023-04-15T02:49:14;2.65;;;2.45;;
16401;SDS011;8310;44.626;11.176;2023-04-15T02:51:42;3.08;;;2.50;;
16401;SDS011;8310;44.626;11.176;2023-04-15T02:54:13;3.42;;;2.35;;
16401;SDS011;8310;44.626;11.176;2023-04-15T02:56:40;2.58;;;2.30;;
16401;SDS011;8310;44.626;11.176;2023-04-15T02:59:08;3.47;;;3.17;;
16401;SDS011;8310;44.626;11.176;2023-04-15T03:01:35;2.50;;;2.25;;
16401;SDS011;8310;44.626;11.176;2023-04-15T03:04:02;5.20;;;2.50;;
16401;SDS011;8310;44.626;11.176;2023-04-15T03:06:31;3.00;;;2.72;;
16401;SDS011;8310;44.626;11.176;2023-04-15T03:08:59;2.55;;;2.25;;
16401;SDS011;8310;44.626;11.176;2023-04-15T03:11:28;2.97;;;2.30;;
16401;SDS011;8310;44.626;11.176;2023-04-15T03:13:56;4.18;;;2.47;;
16401;SDS011;8310;44.626;11.176;2023-04-15T03:16:24;2.80;;;2.60;;
16401;SDS011;8310;44.626;11.176;2023-04-15T03:18:51;5.32;;;2.90;;
16401;SDS011;8310;44.626;11.176;2023-04-15T03:21:18;4.40;;;2.72;;
16401;SDS011;8310;44.626;11.176;2023-04-15T03:23:46;5.55;;;3.17;;
16401;SDS011;8310;44.626;11.176;2023-04-15T03:26:22;5.43;;;3.50;;
16401;SDS011;8310;44.626;11.176;2023-04-15T03:28:53;4.10;;;2.80;;
16401;SDS011;8310;44.626;11.176;2023-04-15T03:31:22;4.70;;;3.08;;
16401;SDS011;8310;44.626;11.176;2023-04-15T03:33:50;4.38;;;3.25;;
16401;SDS011;8310;44.626;11.176;2023-04-15T03:36:20;4.60;;;3.00;;
16401;SDS011;8310;44.626;11.176;2023-04-15T03:38:47;3.38;;;2.80;;
16401;SDS011;8310;44.626;11.176;2023-04-15T03:41:15;4.68;;;3.03;;
16401;SDS011;8310;44.626;11.176;2023-04-15T03:43:42;4.32;;;2.65;;
16401;SDS011;8310;44.626;11.176;2023-04-15T03:46:10;3.55;;;2.47;;
16401;SDS011;8310;44.626;11.176;2023-04-15T03:48:38;3.40;;;2.92;;
16401;SDS011;8310;44.626;11.176;2023-04-15T03:51:05;3.85;;;2.42;;
16401;SDS011;8310;44.626;11.176;2023-04-15T03:53:33;4.03;;;3.72;;
16401;SDS011;8310;44.626;11.176;2023-04-15T03:56:00;4.63;;;2.65;;
16401;SDS011;8310;44.626;11.176;2023-04-15T03:58:27;5.97;;;2.47;;
16401;SDS011;8310;44.626;11.176;2023-04-15T04:00:54;3.65;;;2.55;;
16401;SDS011;8310;44.626;11.176;2023-04-15T04:03:24;3.30;;;2.60;;
16401;SDS011;8310;44.626;11.176;2023-04-15T04:05:51;2.83;;;2.38;;
16401;SDS011;8310;44.626;11.176;2023-04-15T04:08:19;2.97;;;2.72;;
16401;SDS011;8310;44.626;11.176;2023-04-15T04:10:47;3.25;;;2.50;;
16401;SDS011;8310;44.626;11.176;2023-04-15T04:13:19;2.90;;;2.42;;
16401;SDS011;8310;44.626;11.176;2023-04-15T04:15:46;4.68;;;3.33;;
16401;SDS011;8310;44.626;11.176;2023-04-15T04:18:14;3.33;;;2.97;;
16401;SDS011;8310;44.626;11.176;2023-04-15T04:20:43;5.82;;;3.60;;
16401;SDS011;8310;44.626;11.176;2023-04-15T04:23:10;4.22;;;2.88;;
16401;SDS011;8310;44.626;11.176;2023-04-15T04:25:38;4.20;;;2.90;;
16401;SDS011;8310;44.626;11.176;2023-04-15T04:28:06;3.90;;;2.95;;
16401;SDS011;8310;44.626;11.176;2023-04-15T04:30:34;5.10;;;2.60;;
16401;SDS011;8310;44.626;11.176;2023-04-15T04:33:02;6.30;;;2.55;;
16401;SDS011;8310;44.626;11.176;2023-04-15T04:35:29;3.45;;;3.00;;
16401;SDS011;8310;44.626;11.176;2023-04-15T04:38:00;6.60;;;2.97;;
16401;SDS011;8310;44.626;11.176;2023-04-15T04:40:27;4.82;;;2.97;;
16401;SDS011;8310;44.626;11.176;2023-04-15T04:42:55;4.05;;;2.92;;
16401;SDS011;8310;44.626;11.176;2023-04-15T04:45:22;7.78;;;3.22;;
16401;SDS011;8310;44.626;11.176;2023-04-15T04:47:49;3.33;;;2.80;;
16401;SDS011;8310;44.626;11.176;2023-04-15T04:50:17;7.35;;;3.90;;
16401;SDS011;8310;44.626;11.176;2023-04-15T04:52:45;3.35;;;2.78;;
16401;SDS011;8310;44.626;11.176;2023-04-15T04:55:13;6.35;;;3.22;;
16401;SDS011;8310;44.626;11.176;2023-04-15T04:57:40;2.50;;;2.30;;
16401;SDS011;8310;44.626;11.176;2023-04-15T05:00:08;2.65;;;2.45;;
16401;SDS011;8310;44.626;11.176;2023-04-15T05:02:36;4.65;;;3.45;;
16401;SDS011;8310;44.626;11.176;2023-04-15T05:05:04;3.47;;;2.30;;
16401;SDS011;8310;44.626;11.176;2023-04-15T05:07:33;2.90;;;2.47;;
16401;SDS011;8310;44.626;11.176;2023-04-15T05:10:01;3.20;;;2.60;;
16401;SDS011;8310;44.626;11.176;2023-04-15T05:12:30;4.65;;;3.13;;
16401;SDS011;8310;44.626;11.176;2023-04-15T05:14:57;2.95;;;2.40;;
16401;SDS011;8310;44.626;11.176;2023-04-15T05:17:25;5.70;;;2.80;;
16401;SDS011;8310;44.626;11.176;2023-04-15T05:19:52;3.95;;;2.83;;
16401;SDS011;8310;44.626;11.176;2023-04-15T05:22:19;3.25;;;2.88;;
16401;SDS011;8310;44.626;11.176;2023-04-15T05:24:47;4.10;;;2.47;;
16401;SDS011;8310;44.626;11.176;2023-04-15T05:27:15;3.28;;;2.63;;
16401;SDS011;8310;44.626;11.176;2023-04-15T05:29:44;3.88;;;2.85;;
16401;SDS011;8310;44.626;11.176;2023-04-15T05:32:12;3.95;;;2.67;;
16401;SDS011;8310;44.626;11.176;2023-04-15T05:34:40;4.30;;;2.88;;
16401;SDS011;8310;44.626;11.176;2023-04-15T05:37:07;3.78;;;2.83;;
16401;SDS011;8310;44.626;11.176;2023-04-15T05:39:35;6.90;;;2.70;;
16401;SDS011;8310;44.626;11.176;2023-04-15T05:42:02;3.65;;;2.78;;
16401;SDS011;8310;44.626;11.176;2023-04-15T05:44:30;3.30;;;2.95;;
16401;SDS011;8310;44.626;11.176;2023-04-15T05:46:59;3.05;;;2.85;;
16401;SDS011;8310;44.626;11.176;2023-04-15T05:49:27;5.35;;;2.92;;
16401;SDS011;8310;44.626;11.176;2023-04-15T05:51:54;4.88;;;3.00;;
16401;SDS011;8310;44.626;11.176;2023-04-15T05:54:23;3.55;;;3.08;;
16401;SDS011;8310;44.626;11.176;2023-04-15T05:56:51;3.97;;;2.80;;
16401;SDS011;8310;44.626;11.176;2023-04-15T05:59:19;3.35;;;3.05;;
16401;SDS011;8310;44.626;11.176;2023-04-15T06:01:47;5.05;;;3.80;;
16401;SDS011;8310;44.626;11.176;2023-04-15T06:04:15;5.80;;;3.83;;
16401;SDS011;8310;44.626;11.176;2023-04-15T06:06:43;4.20;;;3.88;;
16401;SDS011;8310;44.626;11.176;2023-04-15T06:09:10;4.38;;;4.10;;
16401;SDS011;8310;44.626;11.176;2023-04-15T06:11:38;5.82;;;4.07;;
16401;SDS011;8310;44.626;11.176;2023-04-15T06:14:05;6.63;;;4.45;;
16401;SDS011;8310;44.626;11.176;2023-04-15T06:16:32;7.35;;;4.32;;
16401;SDS011;8310;44.626;11.176;2023-04-15T06:19:00;4.82;;;4.40;;
16401;SDS011;8310;44.626;11.176;2023-04-15T06:21:29;6.55;;;4.70;;
16401;SDS011;8310;44.626;11.176;2023-04-15T06:23:57;5.90;;;4.88;;
16401;SDS011;8310;44.626;11.176;2023-04-15T06:26:27;4.70;;;4.30;;
16401;SDS011;8310;44.626;11.176;2023-04-15T06:28:55;5.10;;;4.60;;
16401;SDS011;8310;44.626;11.176;2023-04-15T06:31:22;5.18;;;4.68;;
16401;SDS011;8310;44.626;11.176;2023-04-15T06:33:50;5.05;;;4.65;;
16401;SDS011;8310;44.626;11.176;2023-04-15T06:36:17;4.93;;;4.45;;
16401;SDS011;8310;44.626;11.176;2023-04-15T06:38:46;5.32;;;4.50;;
16401;SDS011;8310;44.626;11.176;2023-04-15T06:41:14;5.18;;;4.68;;
16401;SDS011;8310;44.626;11.176;2023-04-15T06:43:41;4.95;;;4.45;;
16401;SDS011;8310;44.626;11.176;2023-04-15T06:46:09;5.57;;;4.03;;
16401;SDS011;8310;44.626;11.176;2023-04-15T06:48:36;5.05;;;4.40;;
16401;SDS011;8310;44.626;11.176;2023-04-15T06:51:03;5.75;;;4.22;;
16401;SDS011;8310;44.626;11.176;2023-04-15T06:53:31;4.78;;;3.90;;
16401;SDS011;8310;44.626;11.176;2023-04-15T06:56:01;6.47;;;4.25;;
16401;SDS011;8310;44.626;11.176;2023-04-15T06:58:28;4.65;;;4.25;;
16401;SDS011;8310;44.626;11.176;2023-04-15T07:00:56;4.32;;;3.85;;
16401;SDS011;8310;44.626;11.176;2023-04-15T07:03:23;9.27;;;4.32;;
16401;SDS011;8310;44.626;11.176;2023-04-15T07:05:51;5.65;;;4.00;;
16401;SDS011;8310;44.626;11.176;2023-04-15T07:08:18;5.13;;;4.63;;
16401;SDS011;8310;44.626;11.176;2023-04-15T07:10:46;6.38;;;4.50;;
16401;SDS011;8310;44.626;11.176;2023-04-15T07:13:15;4.82;;;4.30;;
16401;SDS011;8310;44.626;11.176;2023-04-15T07:15:43;6.25;;;4.75;;
16401;SDS011;8310;44.626;11.176;2023-04-15T07:18:11;4.07;;;3.70;;
16401;SDS011;8310;44.626;11.176;2023-04-15T07:20:38;5.55;;;4.40;;
16401;SDS011;8310;44.626;11.176;2023-04-15T07:23:05;7.30;;;4.90;;
16401;SDS011;8310;44.626;11.176;2023-04-15T07:25:33;5.78;;;4.53;;
16401;SDS011;8310;44.626;11.176;2023-04-15T07:28:00;6.35;;;4.13;;
16401;SDS011;8310;44.626;11.176;2023-04-15T07:30:29;4.43;;;4.03;;
16401;SDS011;8310;44.626;11.176;2023-04-15T07:32:57;4.65;;;4.25;;
16401;SDS011;8310;44.626;11.176;2023-04-15T07:35:25;5.78;;;4.28;;
16401;SDS011;8310;44.626;11.176;2023-04-15T07:37:53;4.60;;;4.20;;
16401;SDS011;8310;44.626;11.176;2023-04-15T07:40:20;5.22;;;4.47;;
16401;SDS011;8310;44.626;11.176;2023-04-15T07:42:47;5.72;;;4.63;;
16401;SDS011;8310;44.626;11.176;2023-04-15T07:45:15;6.10;;;3.95;;
16401;SDS011;8310;44.626;11.176;2023-04-15T07:47:45;6.22;;;4.00;;
16401;SDS011;8310;44.626;11.176;2023-04-15T07:50:12;5.10;;;4.13;;
16401;SDS011;8310;44.626;11.176;2023-04-15T07:52:41;5.70;;;4.43;;
16401;SDS011;8310;44.626;11.176;2023-04-15T07:55:08;5.20;;;4.50;;
16401;SDS011;8310;44.626;11.176;2023-04-15T07:57:36;4.80;;;4.40;;
16401;SDS011;8310;44.626;11.176;2023-04-15T08:00:03;4.60;;;4.07;;
16401;SDS011;8310;44.626;11.176;2023-04-15T08:02:31;4.38;;;3.97;;
16401;SDS011;8310;44.626;11.176;2023-04-15T08:05:01;6.28;;;4.15;;
16401;SDS011;8310;44.626;11.176;2023-04-15T08:07:28;5.45;;;4.13;;
16401;SDS011;8310;44.626;11.176;2023-04-15T08:09:55;6.22;;;3.90;;
16401;SDS011;8310;44.626;11.176;2023-04-15T08:12:23;4.40;;;4.00;;
16401;SDS011;8310;44.626;11.176;2023-04-15T08:14:50;3.78;;;3.47;;
16401;SDS011;8310;44.626;11.176;2023-04-15T08:17:18;4.03;;;3.60;;
16401;SDS011;8310;44.626;11.176;2023-04-15T08:19:46;4.18;;;3.38;;
16401;SDS011;8310;44.626;11.176;2023-04-15T08:22:15;5.13;;;3.95;;
16401;SDS011;8310;44.626;11.176;2023-04-15T08:24:42;4.22;;;3.70;;
16401;SDS011;8310;44.626;11.176;2023-04-15T08:27:10;5.45;;;3.47;;
16401;SDS011;8310;44.626;11.176;2023-04-15T08:29:38;3.83;;;3.42;;
16401;SDS011;8310;44.626;11.176;2023-04-15T08:32:06;4.63;;;3.50;;
16401;SDS011;8310;44.626;11.176;2023-04-15T08:34:34;3.65;;;3.35;;
16401;SDS011;8310;44.626;11.176;2023-04-15T08:37:02;4.07;;;3.28;;
16401;SDS011;8310;44.626;11.176;2023-04-15T08:39:31;5.22;;;3.50;;
16401;SDS011;8310;44.626;11.176;2023-04-15T08:42:00;5.30;;;3.40;;
16401;SDS011;8310;44.626;11.176;2023-04-15T08:44:28;5.00;;;3.33;;
16401;SDS011;8310;44.626;11.176;2023-04-15T08:46:59;4.32;;;3.55;;
16401;SDS011;8310;44.626;11.176;2023-04-15T08:49:28;5.85;;;4.07;;
16401;SDS011;8310;44.626;11.176;2023-04-15T08:51:57;4.40;;;4.00;;
16401;SDS011;8310;44.626;11.176;2023-04-15T08:54:25;4.15;;;3.78;;
16401;SDS011;8310;44.626;11.176;2023-04-15T08:56:55;7.10;;;4.22;;
16401;SDS011;8310;44.626;11.176;2023-04-15T08:59:23;4.68;;;3.95;;
16401;SDS011;8310;44.626;11.176;2023-04-15T09:01:51;4.07;;;3.78;;
16401;SDS011;8310;44.626;11.176;2023-04-15T09:04:19;4.72;;;4.07;;
16401;SDS011;8310;44.626;11.176;2023-04-15T09:06:46;3.80;;;3.50;;
16401;SDS011;8310;44.626;11.176;2023-04-15T09:09:14;4.35;;;3.90;;
16401;SDS011;8310;44.626;11.176;2023-04-15T09:11:41;4.55;;;4.15;;
16401;SDS011;8310;44.626;11.176;2023-04-15T09:14:11;3.28;;;2.95;;
16401;SDS011;8310;44.626;11.176;2023-04-15T09:16:57;3.50;;;3.13;;
16401;SDS011;8310;44.626;11.176;2023-04-15T09:19:25;3.88;;;3.25;;
16401;SDS011;8310;44.626;11.176;2023-04-15T09:21:53;3.65;;;3.35;;
16401;SDS011;8310;44.626;11.176;2023-04-15T09:24:22;5.15;;;3.80;;
16401;SDS011;8310;44.626;11.176;2023-04-15T09:26:51;2.40;;;2.30;;
16401;SDS011;8310;44.626;11.176;2023-04-15T09:29:22;3.30;;;3.00;;
16401;SDS011;8310;44.626;11.176;2023-04-15T09:31:51;2.55;;;2.30;;
16401;SDS011;8310;44.626;11.176;2023-04-15T09:34:18;3.78;;;2.35;;
16401;SDS011;8310;44.626;11.176;2023-04-15T09:36:53;2.42;;;2.25;;
16401;SDS011;8310;44.626;11.176;2023-04-15T09:39:21;2.47;;;2.30;;
16401;SDS011;8310;44.626;11.176;2023-04-15T09:42:04;4.00;;;3.20;;
16401;SDS011;8310;44.626;11.176;2023-04-15T09:44:34;3.83;;;3.33;;
16401;SDS011;8310;44.626;11.176;2023-04-15T09:47:02;4.28;;;3.28;;
16401;SDS011;8310;44.626;11.176;2023-04-15T09:49:29;3.30;;;3.00;;
16401;SDS011;8310;44.626;11.176;2023-04-15T09:51:57;4.38;;;3.97;;
16401;SDS011;8310;44.626;11.176;2023-04-15T09:54:31;6.22;;;4.18;;
16401;SDS011;8310;44.626;11.176;2023-04-15T09:57:03;7.45;;;3.75;;
16401;SDS011;8310;44.626;11.176;2023-04-15T09:59:33;4.25;;;3.95;;
16401;SDS011;8310;44.626;11.176;2023-04-15T10:02:01;4.63;;;4.13;;
16401;SDS011;8310;44.626;11.176;2023-04-15T10:04:32;4.57;;;3.40;;
16401;SDS011;8310;44.626;11.176;2023-04-15T10:07:04;3.58;;;3.30;;
16401;SDS011;8310;44.626;11.176;2023-04-15T10:09:33;3.67;;;3.38;;
16401;SDS011;8310;44.626;11.176;2023-04-15T10:12:02;4.22;;;3.60;;
16401;SDS011;8310;44.626;11.176;2023-04-15T10:14:31;4.32;;;3.25;;
16401;SDS011;8310;44.626;11.176;2023-04-15T10:17:02;3.58;;;2.63;;
16401;SDS011;8310;44.626;11.176;2023-04-15T10:19:32;3.22;;;2.78;;
16401;SDS011;8310;44.626;11.176;2023-04-15T10:22:03;4.68;;;2.70;;
16401;SDS011;8310;44.626;11.176;2023-04-15T10:24:30;5.25;;;3.70;;
16401;SDS011;8310;44.626;11.176;2023-04-15T10:26:59;5.03;;;3.15;;
16401;SDS011;8310;44.626;11.176;2023-04-15T10:29:26;3.28;;;2.97;;
16401;SDS011;8310;44.626;11.176;2023-04-15T10:31:55;2.65;;;2.45;;
16401;SDS011;8310;44.626;11.176;2023-04-15T10:34:24;3.85;;;2.22;;
16401;SDS011;8310;44.626;11.176;2023-04-15T10:36:54;3.97;;;2.20;;
16401;SDS011;8310;44.626;11.176;2023-04-15T10:39:37;3.65;;;2.50;;
16401;SDS011;8310;44.626;11.176;2023-04-15T10:42:07;4.68;;;2.83;;
16401;SDS011;8310;44.626;11.176;2023-04-15T10:44:36;5.50;;;2.50;;
16401;SDS011;8310;44.626;11.176;2023-04-15T10:47:08;3.17;;;2.15;;
16401;SDS011;8310;44.626;11.176;2023-04-15T10:49:44;3.42;;;1.90;;
16401;SDS011;8310;44.626;11.176;2023-04-15T10:52:13;5.10;;;2.40;;
16401;SDS011;8310;44.626;11.176;2023-04-15T10:54:41;4.43;;;2.50;;
16401;SDS011;8310;44.626;11.176;2023-04-15T10:57:13;2.95;;;1.92;;
16401;SDS011;8310;44.626;11.176;2023-04-15T11:02:39;4.32;;;1.90;;
16401;SDS011;8310;44.626;11.176;2023-04-15T11:05:11;4.05;;;2.30;;
16401;SDS011;8310;44.626;11.176;2023-04-15T11:07:40;4.65;;;2.63;;
16401;SDS011;8310;44.626;11.176;2023-04-15T11:13:46;3.65;;;2.20;;
16401;SDS011;8310;44.626;11.176;2023-04-15T11:16:14;6.35;;;2.33;;
16401;SDS011;8310;44.626;11.176;2023-04-15T11:18:47;5.97;;;2.60;;
16401;SDS011;8310;44.626;11.176;2023-04-15T11:21:22;3.67;;;2.38;;
16401;SDS011;8310;44.626;11.176;2023-04-15T11:23:52;3.22;;;2.63;;
16401;SDS011;8310;44.626;11.176;2023-04-15T11:26:19;4.80;;;2.70;;
16401;SDS011;8310;44.626;11.176;2023-04-15T11:28:53;5.03;;;2.83;;
16401;SDS011;8310;44.626;11.176;2023-04-15T11:31:20;4.40;;;2.60;;
16401;SDS011;8310;44.626;11.176;2023-04-15T11:33:54;4.25;;;2.42;;
16401;SDS011;8310;44.626;11.176;2023-04-15T11:36:23;3.13;;;2.80;;
16401;SDS011;8310;44.626;11.176;2023-04-15T11:38:54;3.00;;;2.60;;
16401;SDS011;8310;44.626;11.176;2023-04-15T11:41:24;3.97;;;3.00;;
16401;SDS011;8310;44.626;11.176;2023-04-15T11:43:52;4.57;;;3.10;;
16401;SDS011;8310;44.626;11.176;2023-04-15T11:46:19;6.22;;;2.95;;
16401;SDS011;8310;44.626;11.176;2023-04-15T11:48:47;4.80;;;2.90;;
16401;SDS011;8310;44.626;11.176;2023-04-15T11:51:16;4.75;;;3.30;;
16401;SDS011;8310;44.626;11.176;2023-04-15T11:53:48;3.60;;;3.30;;
16401;SDS011;8310;44.626;11.176;2023-04-15T11:56:17;3.63;;;3.30;;
16401;SDS011;8310;44.626;11.176;2023-04-15T11:58:47;4.20;;;3.90;;
16401;SDS011;8310;44.626;11.176;2023-04-15T12:01:17;4.28;;;3.08;;
16401;SDS011;8310;44.626;11.176;2023-04-15T12:03:45;3.85;;;3.17;;
16401;SDS011;8310;44.626;11.176;2023-04-15T12:06:14;3.90;;;3.45;;
16401;SDS011;8310;44.626;11.176;2023-04-15T12:08:50;3.97;;;3.60;;
16401;SDS011;8310;44.626;11.176;2023-04-15T12:11:27;3.67;;;3.10;;
16401;SDS011;8310;44.626;11.176;2023-04-15T12:13:56;4.15;;;3.30;;
16401;SDS011;8310;44.626;11.176;2023-04-15T12:16:26;3.90;;;3.40;;
16401;SDS011;8310;44.626;11.176;2023-04-15T12:18:55;3.40;;;3.10;;
16401;SDS011;8310;44.626;11.176;2023-04-15T12:21:26;4.10;;;3.78;;
16401;SDS011;8310;44.626;11.176;2023-04-15T12:24:00;4.65;;;3.80;;
16401;SDS011;8310;44.626;11.176;2023-04-15T12:26:33;4.13;;;3.45;;
16401;SDS011;8310;44.626;11.176;2023-04-15T12:29:02;3.83;;;3.40;;
16401;SDS011;8310;44.626;11.176;2023-04-15T12:31:30;3.25;;;2.92;;
16401;SDS011;8310;44.626;11.176;2023-04-15T12:33:57;4.65;;;3.28;;
16401;SDS011;8310;44.626;11.176;2023-04-15T12:36:27;4.50;;;3.90;;
16401;SDS011;8310;44.626;11.176;2023-04-15T12:38:55;3.38;;;3.08;;
16401;SDS011;8310;44.626;11.176;2023-04-15T12:41:23;4.10;;;3.30;;
16401;SDS011;8310;44.626;11.176;2023-04-15T12:43:50;3.67;;;3.10;;
16401;SDS011;8310;44.626;11.176;2023-04-15T12:46:18;6.78;;;3.20;;
16401;SDS011;8310;44.626;11.176;2023-04-15T12:48:49;4.88;;;2.92;;
16401;SDS011;8310;44.626;11.176;2023-04-15T12:51:17;3.95;;;2.80;;
16401;SDS011;8310;44.626;11.176;2023-04-15T12:53:46;3.28;;;2.95;;
16401;SDS011;8310;44.626;11.176;2023-04-15T12:56:15;4.07;;;2.47;;
16401;SDS011;8310;44.626;11.176;2023-04-15T12:58:42;3.35;;;2.53;;
16401;SDS011;8310;44.626;11.176;2023-04-15T13:01:10;3.50;;;2.55;;
16401;SDS011;8310;44.626;11.176;2023-04-15T13:03:38;4.32;;;2.38;;
16401;SDS011;8310;44.626;11.176;2023-04-15T13:06:05;5.50;;;2.42;;
16401;SDS011;8310;44.626;11.176;2023-04-15T13:08:33;3.03;;;2.40;;
16401;SDS011;8310;44.626;11.176;2023-04-15T13:11:02;6.63;;;2.80;;
16401;SDS011;8310;44.626;11.176;2023-04-15T13:13:30;3.78;;;2.10;;
16401;SDS011;8310;44.626;11.176;2023-04-15T13:15:58;2.78;;;2.10;;
16401;SDS011;8310;44.626;11.176;2023-04-15T13:18:26;3.60;;;2.47;;
16401;SDS011;8310;44.626;11.176;2023-04-15T13:20:55;4.03;;;2.20;;
16401;SDS011;8310;44.626;11.176;2023-04-15T13:23:23;3.05;;;2.60;;
16401;SDS011;8310;44.626;11.176;2023-04-15T13:25:55;5.75;;;2.38;;
16401;SDS011;8310;44.626;11.176;2023-04-15T13:28:24;5.60;;;2.25;;
16401;SDS011;8310;44.626;11.176;2023-04-15T13:30:51;5.53;;;2.75;;
16401;SDS011;8310;44.626;11.176;2023-04-15T13:33:18;2.67;;;2.05;;
16401;SDS011;8310;44.626;11.176;2023-04-15T13:35:46;2.65;;;2.45;;
16401;SDS011;8310;44.626;11.176;2023-04-15T13:38:13;2.55;;;2.35;;
16401;SDS011;8310;44.626;11.176;2023-04-15T13:40:41;4.63;;;2.72;;
16401;SDS011;8310;44.626;11.176;2023-04-15T13:43:09;2.83;;;2.20;;
16401;SDS011;8310;44.626;11.176;2023-04-15T13:45:38;2.95;;;2.30;;
16401;SDS011;8310;44.626;11.176;2023-04-15T13:48:06;1.85;;;1.67;;
16401;SDS011;8310;44.626;11.176;2023-04-15T13:50:33;6.35;;;2.00;;
16401;SDS011;8310;44.626;11.176;2023-04-15T13:53:01;5.15;;;2.45;;
16401;SDS011;8310;44.626;11.176;2023-04-15T13:55:50;3.35;;;2.15;;
16401;SDS011;8310;44.626;11.176;2023-04-15T13:58:17;3.30;;;2.42;;
16401;SDS011;8310;44.626;11.176;2023-04-15T14:00:46;6.22;;;2.58;;
16401;SDS011;8310;44.626;11.176;2023-04-15T14:03:13;4.15;;;2.08;;
16401;SDS011;8310;44.626;11.176;2023-04-15T14:05:41;4.93;;;2.75;;
16401;SDS011;8310;44.626;11.176;2023-04-15T14:08:08;5.53;;;2.20;;
16401;SDS011;8310;44.626;11.176;2023-04-15T14:10:41;3.40;;;2.42;;
16401;SDS011;8310;44.626;11.176;2023-04-15T14:13:12;5.03;;;2.88;;
16401;SDS011;8310;44.626;11.176;2023-04-15T14:15:40;4.18;;;2.53;;
16401;SDS011;8310;44.626;11.176;2023-04-15T14:18:09;3.47;;;2.42;;
16401;SDS011;8310;44.626;11.176;2023-04-15T14:20:36;3.20;;;2.50;;
16401;SDS011;8310;44.626;11.176;2023-04-15T14:23:03;3.53;;;2.17;;
16401;SDS011;8310;44.626;11.176;2023-04-15T14:25:31;2.83;;;2.28;;
16401;SDS011;8310;44.626;11.176;2023-04-15T14:27:58;3.20;;;1.85;;
16401;SDS011;8310;44.626;11.176;2023-04-15T14:30:26;3.78;;;2.55;;
16401;SDS011;8310;44.626;11.176;2023-04-15T14:32:54;5.25;;;2.55;;
16401;SDS011;8310;44.626;11.176;2023-04-15T14:35:23;6.57;;;2.45;;
16401;SDS011;8310;44.626;11.176;2023-04-15T14:37:51;3.08;;;2.00;;
16401;SDS011;8310;44.626;11.176;2023-04-15T14:40:19;3.72;;;2.05;;
16401;SDS011;8310;44.626;11.176;2023-04-15T14:42:47;5.43;;;2.10;;
16401;SDS011;8310;44.626;11.176;2023-04-15T14:45:14;3.90;;;2.20;;
16401;SDS011;8310;44.626;11.176;2023-04-15T14:47:42;3.05;;;1.90;;
16401;SDS011;8310;44.626;11.176;2023-04-15T14:50:09;6.03;;;2.28;;
16401;SDS011;8310;44.626;11.176;2023-04-15T14:52:38;5.32;;;2.10;;
16401;SDS011;8310;44.626;11.176;2023-04-15T14:55:07;3.78;;;2.20;;
16401;SDS011;8310;44.626;11.176;2023-04-15T14:57:35;3.28;;;2.08;;
16401;SDS011;8310;44.626;11.176;2023-04-15T15:00:03;3.65;;;2.00;;
16401;SDS011;8310;44.626;11.176;2023-04-15T15:02:32;5.25;;;1.80;;